x

St Georges - 8nm Nw Of Crescent City, Ca (46027) Wave Buoy

9:50pm - Wed 13th Dec 2017 All times are PST. -8 hours from GMT.

  • Sig Wave height 6.6ft
  • Swell Direction
  • Peak Period 16s
  • Average Period 8s
  • Wind
    4mph, 4mph gusts
  • Sea Temp 53°f
  • Air Temp 52°f
  • Sea Pressure 1020.2mb
  • St Georges - 8nm Nw Of Crescent City, Ca
  • St Georges - 8nm Nw Of Crescent City, Ca

More Historic Weather Station data

Upgrade to MSW Pro to gain access to the past 30 days of data for over 8000 Wavebouys and Weather Stations around the globe.

Join

Comparision Forecast

View Surf forecast
   
Wed 12/13 9:50pm 6.5ft 16s 8s 4 4 mph 1020.2mb 53f 52f
8:50pm 6ft 16s 8s  -  2 mph 1020.5mb 53f 52f
7:50pm 6ft 16s 8s 2 2 mph 1020.6mb 53f 52f
6:50pm 7ft 16s 8s  -  2 mph 1020.4mb 54f 52f
5:50pm 6ft 16s 8s 2 2 mph 1020.6mb 53f 52f
4:50pm 6.5ft 17s 8s 4 4 mph 1020.5mb 54f 53f
3:50pm 6ft 17s 8s 2 4 mph 1020.6mb 54f 53f
2:50pm 5ft 17s 7s 4 7 mph 1020.7mb 54f 53f
1:50pm 5.5ft 17s 8s 2 4 mph 1020.6mb 54f 53f
12:50pm 6ft 10s 8s 2 4 mph 1021.3mb 54f 52f
11:50am 6ft 10s 8s 2 4 mph 1021.9mb 54f 52f
10:50am 5.5ft 12s 8s  -  0 mph 1022.9mb 53f 53f
9:50am 5.5ft 12s 7s  -  4 mph 1022.7mb 53f 52f
8:50am 6.5ft 12s 8s 4 7 mph 1022.6mb 53f 52f
7:50am 6ft 10s 7s 4 7 mph 1022.8mb 53f 51f
6:50am 6ft 12s 8s 4 7 mph 1022.5mb 53f 52f
5:50am 7ft 10s 8s 4 4 mph 1022.5mb 53f 52f
4:50am 6ft 13s 8s  -  2 mph 1022.4mb 53f 51f
3:50am 6ft 12s 8s 4 7 mph 1023.1mb 53f 51f
2:50am 6ft 12s 8s 4 7 mph 1023.7mb 53f 51f
1:50am 6.5ft 12s 8s 2 4 mph 1024.2mb 53f 52f
12:50am 6.5ft 12s 9s  -  2 mph 1023.8mb 53f 52f
Tue 12/12 11:50pm 6.5ft 12s 9s 11 13 mph 1023.3mb 53f 51f
10:50pm 7.5ft 13s 9s 4 7 mph 1024.4mb 53f 51f
9:50pm 7ft 12s 9s 2 7 mph 1024mb 53f 53f
8:50pm 7ft 12s 9s 4 7 mph 1023.9mb 53f 53f
7:50pm 7ft 12s 9s 4 4 mph 1023.7mb 53f 52f
6:50pm 7.5ft 12s 9s 2 4 mph 1023.9mb 53f 53f
5:50pm 7ft 13s 9s  -  2 mph 1024.2mb 54f 53f
4:50pm 7.5ft 11s 9s 4 4 mph 1024.6mb 54f 53f
3:50pm 7.5ft 12s 9s 7 9 mph 1024.9mb 54f 54f
2:50pm 7.5ft 14s 9s 4 7 mph 1025.1mb 54f 54f
1:50pm 8ft 13s 10s 2 4 mph 1025.8mb 54f 54f
12:50pm 7.5ft 12s 9s 4 7 mph 1026.7mb 53f 53f
11:50am 8ft 11s 9s 7 7 mph 1027.7mb 53f 53f
10:50am 7ft 14s 9s 7 9 mph 1028.5mb 53f 52f
9:50am 6.5ft 13s 9s 4 7 mph 1028.4mb 53f 53f
8:50am 7ft 11s 9s 2 4 mph 1027.8mb 53f 53f
7:50am 7ft 12s 9s 7 9 mph 1027.4mb 53f 53f
6:50am 7ft 13s 9s 4 7 mph 1027.3mb 53f 53f
5:50am 6.5ft 14s 9s 4 9 mph 1027.1mb 53f 51f
4:50am 6.5ft 14s 9s 7 9 mph 1027.5mb 53f 51f
3:50am 6ft 14s 9s 4 7 mph 1027.6mb 53f 52f
2:50am 6.5ft 13s 9s 4 7 mph 1027.7mb 53f 53f
1:50am 6.5ft 13s 9s 7 9 mph 1028mb 53f 52f
12:50am 5.5ft 14s 9s 2 4 mph 1027.8mb 54f 54f
Mon 12/11 11:50pm 5.5ft 14s 9s 7 9 mph 1027.1mb 53f 53f
10:50pm 5.5ft 14s 9s 7 7 mph 1027.3mb 53f 53f
9:50pm 5ft 13s 9s 4 7 mph 1027.3mb 53f 54f
8:50pm 5ft 15s 9s  -  4 mph 1026.9mb 54f 55f
7:50pm 5ft 15s 9s 2 4 mph 1026.7mb 54f 56f
6:50pm 5ft 13s 9s 2 4 mph 1026.3mb 54f 55f
5:50pm 5ft 14s 8s 4 4 mph 1026.1mb 54f 56f
4:50pm 4.5ft 14s 8s 2 4 mph 1026.1mb 54f 56f
3:50pm 5ft 15s 8s 2 7 mph 1025.8mb 55f 57f
2:50pm 5ft 14s 8s 2 2 mph 1025.6mb 55f 58f
1:50pm 4.5ft 14s 8s  -  2 mph 1025.3mb 54f 59f
12:50pm 4.5ft 14s 8s 2 4 mph 1025.2mb 54f 55f
11:50am 5ft 14s 8s 4 7 mph 1025.8mb 54f 55f
10:50am 4.5ft 14s 8s 2 2 mph 1026mb 53f 56f
9:50am 4.5ft 15s 8s 7 11 mph 1025.1mb 54f 55f
8:50am 4.5ft 14s 8s 9 9 mph 1024.4mb 54f 55f
7:50am 5ft 14s 8s 7 9 mph 1023.8mb 54f 53f
6:50am 6ft 15s 9s 7 7 mph 1023.8mb 54f 54f
5:50am 5ft 14s 8s 2 4 mph 1023.9mb 54f 54f
4:50am 5ft 14s 8s 4 7 mph 1023.4mb 54f 54f
3:50am 5.5ft 15s 9s 9 11 mph 1023.5mb 54f 53f
2:50am 5ft 15s 9s 2 4 mph 1024mb 54f 53f
1:50am 5.5ft 15s 9s 2 4 mph 1023.6mb 54f 53f
12:50am 6ft 15s 9s 4 7 mph 1023.2mb 54f 55f
Sun 12/10 11:50pm 5.5ft 15s 9s 9 11 mph 1023mb 54f 55f
10:50pm 5ft 16s 9s 7 9 mph 1023mb 54f 55f
9:50pm 5.5ft 16s 9s 7 11 mph 1022.8mb 54f 54f
8:50pm 5.5ft 16s 9s 7 9 mph 1022.4mb 53f 55f
7:50pm 5.5ft 9s 9s 4 4 mph 1022mb 54f 55f
6:50pm 5.5ft 9s 9s 7 7 mph 1021.5mb 54f 56f
5:50pm 6ft 9s 9s 2 4 mph 1021.4mb 54f 55f
4:50pm 5ft 8s 8s 4 7 mph 1021.7mb 54f 55f
3:50pm 6ft 10s 8s 4 7 mph 1022.2mb 55f 55f
2:50pm 5ft 9s 8s 2 4 mph 1022.7mb 55f 55f
1:50pm 5ft 10s 8s 4 7 mph 1023mb 55f 55f
12:50pm 5ft 11s 8s 2 4 mph 1023.4mb 55f 55f
11:50am 5.5ft 10s 8s 2 4 mph 1023.9mb 54f 54f
10:50am 5.5ft 8s 8s 4 4 mph 1024.4mb 54f 54f
9:50am 5ft 11s 8s 2 4 mph 1024.5mb 54f 53f
8:50am 5.5ft 11s 9s 4 7 mph 1024.4mb 54f 55f
7:50am 4.5ft 9s 8s 9 11 mph 1024.1mb 54f 53f
6:50am 5ft 12s 8s 2 4 mph 1024.3mb 54f 53f